createdAt,value
2018-05-08T00:00:23.570Z,18.40
2018-05-08T00:02:51.794Z,18.30
2018-05-08T00:05:20.018Z,18.20
2018-05-08T00:07:49.467Z,18.20
2018-05-08T00:10:19.190Z,18.10
2018-05-08T00:12:48.224Z,18.10
2018-05-08T00:15:17.574Z,18.00
2018-05-08T00:17:45.795Z,17.90
2018-05-08T00:20:14.075Z,17.90
2018-05-08T00:22:42.299Z,17.80
2018-05-08T00:25:10.523Z,17.80
2018-05-08T00:27:39.070Z,17.70
2018-05-08T00:30:08.424Z,17.60
2018-05-08T00:32:36.647Z,17.60
2018-05-08T00:35:04.918Z,17.60
2018-05-08T00:40:02.587Z,17.50
2018-05-08T00:42:31.241Z,17.50
2018-05-08T00:44:59.459Z,17.50
2018-05-08T00:49:57.166Z,17.40
2018-05-08T00:52:25.794Z,17.40
2018-05-08T00:55:05.951Z,17.40
2018-05-08T00:57:35.314Z,17.30
2018-05-08T01:02:33.791Z,17.30
2018-05-08T01:05:02.103Z,17.30
2018-05-08T01:07:30.659Z,17.20
2018-05-08T01:09:58.926Z,17.20
2018-05-08T01:12:28.290Z,17.20
2018-05-08T01:14:56.516Z,17.20
2018-05-08T01:17:24.767Z,17.20
2018-05-08T01:19:53.386Z,17.20
2018-05-08T01:24:51.425Z,17.10
2018-05-08T01:29:49.099Z,17.00
2018-05-08T01:32:17.376Z,17.00
2018-05-08T01:34:45.599Z,16.90
2018-05-08T01:37:13.827Z,17.00
2018-05-08T01:39:42.103Z,17.00
2018-05-08T01:42:10.331Z,16.90
2018-05-08T01:44:38.559Z,16.90
2018-05-08T01:47:06.894Z,16.90
2018-05-08T01:49:35.891Z,16.90
2018-05-08T01:52:04.121Z,16.80
2018-05-08T01:54:32.376Z,16.80
2018-05-08T01:57:02.107Z,16.80
2018-05-08T01:59:30.763Z,16.70
2018-05-08T02:01:59.414Z,16.70
2018-05-08T02:04:27.683Z,16.70
2018-05-08T02:06:56.670Z,16.60
2018-05-08T02:09:24.895Z,16.60
2018-05-08T02:11:53.163Z,16.60
2018-05-08T02:14:21.391Z,16.50
2018-05-08T02:16:49.624Z,16.50
2018-05-08T02:19:17.890Z,16.50
2018-05-08T02:21:46.116Z,16.50
2018-05-08T02:24:14.343Z,16.50
2018-05-08T02:26:43.738Z,16.40
2018-05-08T02:29:11.970Z,16.40
2018-05-08T02:31:41.011Z,16.30
2018-05-08T02:34:10.006Z,16.30
2018-05-08T02:36:38.232Z,16.30
2018-05-08T02:39:06.500Z,16.30
2018-05-08T02:41:34.731Z,16.20
2018-05-08T02:44:02.955Z,16.20
2018-05-08T02:46:31.235Z,16.20
2018-05-08T02:51:28.914Z,16.10
2018-05-08T02:53:57.181Z,16.10
2018-05-08T02:56:26.170Z,16.10
2018-05-08T02:58:55.185Z,16.10
2018-05-08T03:01:23.431Z,16.10
2018-05-08T03:03:51.660Z,16.00
2018-05-08T03:06:19.927Z,16.00
2018-05-08T03:08:48.188Z,15.90
2018-05-08T03:11:16.420Z,15.90
2018-05-08T03:16:14.153Z,15.90
2018-05-08T03:18:42.777Z,15.90
2018-05-08T03:21:11.795Z,15.90
2018-05-08T03:23:40.055Z,15.80
2018-05-08T03:26:08.283Z,15.80
2018-05-08T03:28:36.579Z,15.80
2018-05-08T03:31:06.307Z,15.80
2018-05-08T03:33:35.306Z,15.80
2018-05-08T03:36:03.738Z,15.80
2018-05-08T03:38:32.727Z,15.80
2018-05-08T03:41:00.950Z,15.80
2018-05-08T03:43:29.971Z,15.80
2018-05-08T03:45:58.967Z,15.70
2018-05-08T03:48:27.229Z,15.70
2018-05-08T03:50:55.458Z,15.70
2018-05-08T03:53:23.727Z,15.60
2018-05-08T03:55:51.958Z,15.60
2018-05-08T03:58:21.695Z,15.60
2018-05-08T04:01:01.684Z,15.60
2018-05-08T04:03:41.838Z,15.50
2018-05-08T04:09:12.203Z,15.50
2018-05-08T04:11:40.471Z,15.50
2018-05-08T04:14:08.699Z,15.40
2018-05-08T04:16:37.690Z,15.40
2018-05-08T04:19:07.467Z,15.40
2018-05-08T04:21:35.686Z,15.40
2018-05-08T04:26:33.412Z,15.40
2018-05-08T04:29:01.815Z,15.40
2018-05-08T04:31:30.047Z,15.40
2018-05-08T04:33:58.491Z,15.40
2018-05-08T04:36:27.487Z,15.40
2018-05-08T04:38:55.706Z,15.40
2018-05-08T04:41:24.407Z,15.50
2018-05-08T04:43:52.630Z,15.50
2018-05-08T04:46:21.991Z,15.50
2018-05-08T04:48:50.279Z,15.50
2018-05-08T04:51:19.271Z,15.50
2018-05-08T04:53:47.907Z,15.50
2018-05-08T04:56:16.199Z,15.60
2018-05-08T04:58:44.422Z,15.60
2018-05-08T05:01:12.655Z,15.60
2018-05-08T05:03:40.926Z,15.60
2018-05-08T05:06:09.538Z,15.60
2018-05-08T05:08:37.763Z,15.70
2018-05-08T05:11:06.118Z,15.70
2018-05-08T05:13:35.026Z,15.70
2018-05-08T05:16:04.018Z,15.80
2018-05-08T05:18:32.287Z,15.80
2018-05-08T05:21:01.280Z,15.80
2018-05-08T05:23:29.503Z,15.90
2018-05-08T05:25:57.775Z,15.90
2018-05-08T05:28:26.007Z,16.00
2018-05-08T05:30:54.311Z,16.00
2018-05-08T05:33:22.498Z,16.10
2018-05-08T05:35:50.726Z,16.20
2018-05-08T05:38:18.955Z,16.20
2018-05-08T05:40:48.803Z,16.30
2018-05-08T05:43:18.179Z,16.40
2018-05-08T05:45:46.854Z,16.40
2018-05-08T05:48:15.078Z,16.50
2018-05-08T05:50:43.302Z,16.60
2018-05-08T05:53:11.618Z,16.70
2018-05-08T05:55:39.783Z,16.80
2018-05-08T05:58:08.002Z,16.80
2018-05-08T06:00:36.287Z,16.90
2018-05-08T06:03:05.277Z,17.00
2018-05-08T06:05:34.262Z,17.10
2018-05-08T06:08:02.541Z,17.20
2018-05-08T06:10:31.531Z,17.30
2018-05-08T06:12:59.763Z,17.40
2018-05-08T06:15:28.086Z,17.50
2018-05-08T06:17:56.316Z,17.60
2018-05-08T06:20:24.552Z,17.80
2018-05-08T06:22:52.850Z,17.90
2018-05-08T06:25:21.085Z,18.00
2018-05-08T06:27:49.311Z,18.20
2018-05-08T06:30:18.363Z,18.30
2018-05-08T06:32:46.611Z,18.50
2018-05-08T06:35:14.830Z,18.70
2018-05-08T06:37:44.602Z,18.90
2018-05-08T06:40:12.827Z,19.10
2018-05-08T06:42:41.054Z,19.30
2018-05-08T06:45:09.334Z,19.60
2018-05-08T06:47:37.563Z,19.80
2018-05-08T06:50:06.555Z,20.10
2018-05-08T06:52:35.595Z,20.40
2018-05-08T06:55:03.819Z,20.60
2018-05-08T06:57:32.811Z,20.80
2018-05-08T07:00:02.587Z,21.10
2018-05-08T07:02:30.815Z,21.30
2018-05-08T07:04:59.034Z,21.50
2018-05-08T07:07:27.311Z,21.70
2018-05-08T07:09:56.674Z,21.90
2018-05-08T07:12:24.899Z,22.10
2018-05-08T07:14:54.673Z,22.30
2018-05-08T07:17:22.892Z,22.50
2018-05-08T07:19:51.168Z,22.70
2018-05-08T07:22:19.419Z,22.80
2018-05-08T07:24:47.647Z,23.10
2018-05-08T07:27:15.910Z,23.20
2018-05-08T07:29:44.135Z,23.40
2018-05-08T07:32:13.175Z,23.60
2018-05-08T07:34:41.427Z,23.70
2018-05-08T07:37:09.656Z,23.90
2018-05-08T07:42:07.771Z,24.30
2018-05-08T07:44:36.008Z,24.50
2018-05-08T07:47:05.783Z,24.70
2018-05-08T07:49:34.411Z,24.90
2018-05-08T07:52:02.637Z,25.00
2018-05-08T07:54:30.914Z,25.10
2018-05-08T07:56:59.143Z,25.30
2018-05-08T07:59:28.511Z,25.30
2018-05-08T08:01:56.771Z,25.40
2018-05-08T08:04:24.997Z,25.40
2018-05-08T08:06:53.252Z,25.50
2018-05-08T08:09:21.510Z,25.50
2018-05-08T08:11:51.238Z,25.60
2018-05-08T08:14:19.499Z,25.60
2018-05-08T08:16:47.840Z,25.50
2018-05-08T08:21:45.515Z,25.60
2018-05-08T08:24:13.790Z,25.70
2018-05-08T08:26:42.014Z,25.70
2018-05-08T08:29:10.239Z,25.90
2018-05-08T08:31:38.511Z,26.00
2018-05-08T08:34:06.747Z,26.20
2018-05-08T08:36:36.139Z,26.30
2018-05-08T08:39:05.171Z,26.40
2018-05-08T08:41:33.403Z,26.50
2018-05-08T08:44:02.390Z,26.60
2018-05-08T08:46:30.652Z,26.70
2018-05-08T08:48:58.872Z,26.80
2018-05-08T08:51:27.128Z,27.00
2018-05-08T08:53:56.859Z,27.10
2018-05-08T08:56:25.521Z,27.10
2018-05-08T08:58:53.750Z,27.30
2018-05-08T09:01:21.971Z,27.40
2018-05-08T09:03:51.373Z,27.50
2018-05-08T09:06:19.586Z,27.60
2018-05-08T09:08:48.588Z,27.70
2018-05-08T09:13:46.319Z,28.10
2018-05-08T09:18:44.059Z,29.10
2018-05-08T09:21:12.678Z,30.00
2018-05-08T09:23:40.948Z,30.90
2018-05-08T09:26:09.937Z,31.00
2018-05-08T09:28:38.186Z,32.10
2018-05-08T09:31:06.614Z,34.00
2018-05-08T09:36:04.286Z,34.30
2018-05-08T09:38:33.849Z,33.40
2018-05-08T09:41:03.672Z,32.60
2018-05-08T09:43:31.846Z,32.00
2018-05-08T09:46:00.071Z,31.60
2018-05-08T09:48:29.436Z,31.30
2018-05-08T09:50:58.490Z,31.10
2018-05-08T09:53:27.475Z,31.10
2018-05-08T09:55:56.462Z,30.90
2018-05-08T09:58:25.876Z,30.90
2018-05-08T10:00:54.128Z,30.90
2018-05-08T10:03:22.323Z,30.90
2018-05-08T10:08:20.039Z,30.90
2018-05-08T10:10:48.296Z,30.90
2018-05-08T10:13:17.311Z,30.90
2018-05-08T10:15:45.543Z,31.00
2018-05-08T10:18:15.279Z,30.90
2018-05-08T10:20:43.572Z,30.90
2018-05-08T10:23:11.778Z,30.90
2018-05-08T10:25:41.142Z,30.80
2018-05-08T10:30:39.298Z,30.80
2018-05-08T10:33:07.566Z,30.70
2018-05-08T10:35:36.565Z,30.60
2018-05-08T10:38:06.355Z,30.60
2018-05-08T10:40:34.623Z,30.60
2018-05-08T10:43:02.890Z,30.70
2018-05-08T10:48:00.558Z,30.60
2018-05-08T10:50:28.851Z,30.50
2018-05-08T10:52:57.083Z,30.50
2018-05-08T10:55:25.302Z,30.50
2018-05-08T11:00:24.526Z,30.80
2018-05-08T11:02:52.747Z,30.90
2018-05-08T11:05:21.408Z,31.00
2018-05-08T11:07:49.627Z,31.10
2018-05-08T11:10:17.935Z,31.00
2018-05-08T11:12:46.163Z,31.10
2018-05-08T11:15:15.151Z,31.20
2018-05-08T11:17:43.415Z,31.40
2018-05-08T11:20:11.644Z,31.60
2018-05-08T11:22:39.875Z,31.40
2018-05-08T11:25:08.182Z,31.20
2018-05-08T11:30:06.626Z,31.00
2018-05-08T11:32:34.895Z,31.00
2018-05-08T11:35:04.259Z,31.00
2018-05-08T11:37:32.487Z,31.10
2018-05-08T11:40:00.762Z,31.10
2018-05-08T11:42:28.983Z,31.10
2018-05-08T11:44:57.212Z,31.20
2018-05-08T11:47:26.674Z,31.40
2018-05-08T11:49:54.998Z,31.60
2018-05-08T11:52:23.891Z,31.70
2018-05-08T11:54:53.708Z,31.80
2018-05-08T11:57:21.939Z,31.70
2018-05-08T11:59:50.158Z,31.60
2018-05-08T12:02:19.574Z,31.70
2018-05-08T12:04:47.791Z,31.60
2018-05-08T12:07:17.518Z,31.50
2018-05-08T12:12:15.629Z,31.30
2018-05-08T12:14:43.920Z,31.20
2018-05-08T12:17:12.890Z,31.20
2018-05-08T12:22:10.576Z,31.20
2018-05-08T12:24:38.860Z,31.20
2018-05-08T12:27:07.079Z,31.10
2018-05-08T12:29:35.302Z,31.10
2018-05-08T12:32:05.083Z,31.00
2018-05-08T12:34:33.315Z,31.10
2018-05-08T12:39:31.491Z,31.10
2018-05-08T12:42:01.242Z,31.10
2018-05-08T12:44:30.240Z,31.10
2018-05-08T12:46:59.279Z,31.10
2018-05-08T12:51:57.719Z,31.10
2018-05-08T12:54:26.761Z,31.20
2018-05-08T12:56:55.743Z,31.30
2018-05-08T12:59:23.971Z,31.20
2018-05-08T13:01:52.232Z,31.10
2018-05-08T13:04:20.467Z,30.90
2018-05-08T13:06:48.751Z,30.80
2018-05-08T13:09:18.482Z,30.60
2018-05-08T13:11:46.702Z,30.60
2018-05-08T13:16:44.814Z,30.50
2018-05-08T13:19:13.039Z,30.50
2018-05-08T13:21:42.843Z,30.40
2018-05-08T13:26:41.282Z,30.40
2018-05-08T13:29:09.539Z,30.30
2018-05-08T13:31:37.754Z,30.10
2018-05-08T13:34:06.027Z,30.10
2018-05-08T13:36:35.773Z,30.00
2018-05-08T13:39:05.683Z,30.00
2018-05-08T13:44:03.804Z,29.70
2018-05-08T13:46:32.188Z,29.50
2018-05-08T13:49:00.458Z,29.40
2018-05-08T13:53:59.280Z,29.20
2018-05-08T13:56:31.403Z,29.20
2018-05-08T14:01:29.083Z,29.10
2018-05-08T14:03:57.358Z,29.00
2018-05-08T14:06:27.083Z,28.90
2018-05-08T14:08:55.306Z,28.90
2018-05-08T14:11:23.563Z,28.70
2018-05-08T14:13:53.295Z,28.60
2018-05-08T14:16:22.314Z,28.60
2018-05-08T14:18:52.064Z,28.50
2018-05-08T14:21:21.426Z,28.50
2018-05-08T14:23:49.643Z,28.60
2018-05-08T14:26:17.927Z,28.60
2018-05-08T14:28:46.154Z,28.60
2018-05-08T14:31:14.375Z,28.60
2018-05-08T14:36:12.098Z,28.50
2018-05-08T14:38:40.319Z,28.60
2018-05-08T14:41:09.342Z,28.50
2018-05-08T14:43:37.655Z,28.50
2018-05-08T14:46:06.571Z,28.50
2018-05-08T14:48:34.856Z,28.40
2018-05-08T14:51:03.852Z,28.50
2018-05-08T14:53:32.079Z,28.40
2018-05-08T14:56:01.115Z,28.50
2018-05-08T14:58:29.351Z,28.40
2018-05-08T15:00:57.567Z,28.30
2018-05-08T15:03:25.892Z,28.30
2018-05-08T15:05:54.115Z,28.40
2018-05-08T15:08:22.341Z,28.40
2018-05-08T15:10:51.742Z,28.30
2018-05-08T15:13:19.970Z,28.30
2018-05-08T15:15:48.203Z,28.30
2018-05-08T15:18:16.462Z,28.30
2018-05-08T15:20:44.691Z,28.20
2018-05-08T15:23:12.920Z,28.20
2018-05-08T15:25:42.324Z,28.20
2018-05-08T15:28:10.556Z,28.20
2018-05-08T15:30:39.547Z,28.10
2018-05-08T15:33:07.848Z,28.00
2018-05-08T15:35:36.855Z,28.00
2018-05-08T15:38:05.080Z,28.00
2018-05-08T15:40:33.344Z,28.00
2018-05-08T15:43:01.570Z,28.00
2018-05-08T15:45:29.799Z,28.10
2018-05-08T15:50:27.543Z,28.00
2018-05-08T15:55:26.762Z,27.90
2018-05-08T15:57:55.755Z,27.90
2018-05-08T16:00:24.755Z,27.90
2018-05-08T16:02:54.175Z,27.90
2018-05-08T16:05:23.167Z,27.80
2018-05-08T16:07:51.402Z,27.80
2018-05-08T16:10:20.454Z,27.80
2018-05-08T16:12:49.799Z,27.80
2018-05-08T16:15:18.806Z,27.80
2018-05-08T16:17:47.879Z,27.70
2018-05-08T16:22:47.863Z,27.70
2018-05-08T16:25:16.127Z,27.70
2018-05-08T16:27:44.376Z,27.60
2018-05-08T16:30:13.430Z,27.60
2018-05-08T16:32:41.647Z,27.60
2018-05-08T16:35:09.887Z,27.60
2018-05-08T16:37:39.666Z,27.50
2018-05-08T16:40:07.891Z,27.50
2018-05-08T16:42:36.884Z,27.50
2018-05-08T16:45:06.002Z,27.50
2018-05-08T16:47:34.226Z,27.50
2018-05-08T16:50:02.455Z,27.40
2018-05-08T16:52:30.723Z,27.40
2018-05-08T16:54:59.170Z,27.40
2018-05-08T16:57:27.175Z,27.40
2018-05-08T16:59:56.943Z,27.40
2018-05-08T17:02:25.166Z,27.40
2018-05-08T17:04:53.458Z,27.30
2018-05-08T17:07:21.746Z,27.30
2018-05-08T17:09:51.024Z,27.20
2018-05-08T17:12:20.011Z,27.20
2018-05-08T17:14:48.295Z,27.20
2018-05-08T17:17:16.519Z,27.10
2018-05-08T17:19:45.512Z,27.10
2018-05-08T17:22:13.795Z,27.10
2018-05-08T17:24:42.796Z,27.10
2018-05-08T17:27:11.019Z,27.00
2018-05-08T17:29:40.045Z,27.00
2018-05-08T17:32:08.262Z,26.90
2018-05-08T17:34:37.297Z,26.90
2018-05-08T17:37:06.298Z,26.90
2018-05-08T17:39:34.527Z,26.80
2018-05-08T17:42:02.802Z,26.70
2018-05-08T17:44:31.032Z,26.70
2018-05-08T17:46:59.270Z,26.70
2018-05-08T17:49:27.546Z,26.60
2018-05-08T17:54:25.276Z,26.50
2018-05-08T17:56:54.331Z,26.50
2018-05-08T18:01:52.280Z,26.40
2018-05-08T18:04:21.082Z,26.40
2018-05-08T18:06:50.432Z,26.30
2018-05-08T18:09:18.667Z,26.30
2018-05-08T18:11:48.071Z,26.30
2018-05-08T18:14:16.307Z,26.20
2018-05-08T18:16:46.194Z,26.20
2018-05-08T18:19:15.399Z,26.10
2018-05-08T18:21:44.383Z,26.10
2018-05-08T18:24:12.612Z,26.00
2018-05-08T18:26:40.871Z,26.00
2018-05-08T18:29:09.146Z,25.90
2018-05-08T18:31:37.393Z,25.80
2018-05-08T18:34:06.036Z,25.80
2018-05-08T18:36:35.803Z,25.70
2018-05-08T18:39:04.105Z,25.70
2018-05-08T18:41:32.331Z,25.60
2018-05-08T18:44:01.440Z,25.60
2018-05-08T18:46:29.592Z,25.50
2018-05-08T18:48:57.825Z,25.50
2018-05-08T18:51:26.097Z,25.30
2018-05-08T18:53:54.319Z,25.20
2018-05-08T18:56:22.600Z,25.10
2018-05-08T19:01:21.136Z,24.90
2018-05-08T19:03:50.206Z,24.80
2018-05-08T19:06:18.411Z,24.60
2018-05-08T19:11:22.093Z,24.30
2018-05-08T19:13:50.713Z,24.20
2018-05-08T19:18:54.452Z,24.00
2018-05-08T19:21:23.082Z,23.90
2018-05-08T19:23:57.180Z,23.80
2018-05-08T19:26:25.416Z,23.80
2018-05-08T19:28:59.283Z,23.80
2018-05-08T19:31:27.511Z,23.80
2018-05-08T19:33:55.743Z,23.70
2018-05-08T19:36:29.775Z,23.60
2018-05-08T19:38:57.995Z,23.50
2018-05-08T19:41:26.223Z,23.50
2018-05-08T19:43:54.497Z,23.40
2018-05-08T19:48:52.167Z,23.30
2018-05-08T19:51:20.430Z,23.20
2018-05-08T19:53:48.696Z,23.20
2018-05-08T19:56:17.695Z,23.10
2018-05-08T19:58:46.745Z,23.10
2018-05-08T20:01:15.744Z,23.00
2018-05-08T20:03:43.968Z,22.90
2018-05-08T20:08:41.712Z,22.80
2018-05-08T20:11:11.423Z,22.70
2018-05-08T20:16:09.531Z,22.60
2018-05-08T20:18:37.760Z,22.50
2018-05-08T20:21:06.030Z,22.40
2018-05-08T20:23:34.256Z,22.30
2018-05-08T20:26:02.481Z,22.20
2018-05-08T20:28:30.747Z,22.10
2018-05-08T20:31:00.111Z,22.10
2018-05-08T20:33:28.339Z,22.00
2018-05-08T20:35:56.607Z,21.90
2018-05-08T20:38:24.828Z,21.80
2018-05-08T20:40:53.065Z,21.80
2018-05-08T20:43:21.314Z,21.70
2018-05-08T20:45:51.051Z,21.60
2018-05-08T20:48:19.319Z,21.50
2018-05-08T20:50:49.598Z,21.50
2018-05-08T20:53:19.362Z,21.40
2018-05-08T20:55:47.619Z,21.30
2018-05-08T20:58:15.847Z,21.30
2018-05-08T21:00:45.676Z,21.30
2018-05-08T21:03:13.904Z,21.20
2018-05-08T21:05:42.527Z,21.10
2018-05-08T21:08:10.799Z,21.10
2018-05-08T21:10:39.791Z,21.10
2018-05-08T21:13:08.024Z,21.00
2018-05-08T21:15:36.299Z,21.00
2018-05-08T21:18:04.804Z,21.00
2018-05-08T21:20:34.512Z,20.90
2018-05-08T21:23:03.543Z,21.00
2018-05-08T21:25:32.544Z,21.10
2018-05-08T21:28:06.560Z,21.30
2018-05-08T21:30:40.639Z,21.50
2018-05-08T21:33:08.870Z,21.70
2018-05-08T21:35:37.103Z,21.80
2018-05-08T21:38:05.340Z,22.00
2018-05-08T21:40:34.383Z,22.20
2018-05-08T21:43:03.382Z,22.30
2018-05-08T21:45:31.615Z,22.30
2018-05-08T21:50:29.747Z,22.50
2018-05-08T21:55:27.859Z,22.50
2018-05-08T21:57:56.102Z,22.50
2018-05-08T22:00:25.090Z,22.50
2018-05-08T22:02:53.427Z,22.50
2018-05-08T22:05:22.427Z,22.60
2018-05-08T22:10:21.731Z,22.60
2018-05-08T22:12:50.724Z,22.50
2018-05-08T22:15:18.947Z,22.60
2018-05-08T22:17:47.229Z,22.60
2018-05-08T22:22:45.319Z,22.50
2018-05-08T22:25:14.370Z,22.50
2018-05-08T22:27:43.385Z,22.60
2018-05-08T22:30:11.598Z,22.60
2018-05-08T22:32:39.870Z,22.60
2018-05-08T22:37:38.027Z,22.60
2018-05-08T22:40:06.651Z,22.60
2018-05-08T22:42:34.898Z,22.60
2018-05-08T22:45:04.322Z,22.50
2018-05-08T22:47:32.545Z,22.50
2018-05-08T22:50:00.770Z,22.40
2018-05-08T22:52:30.557Z,22.30
2018-05-08T22:54:58.783Z,22.30
2018-05-08T22:57:27.047Z,22.30
2018-05-08T23:02:25.130Z,22.20
2018-05-08T23:04:53.471Z,22.30
2018-05-08T23:07:21.699Z,22.30
2018-05-08T23:09:49.927Z,22.30
2018-05-08T23:12:18.207Z,22.30
2018-05-08T23:14:46.436Z,22.30
2018-05-08T23:17:14.658Z,22.30
2018-05-08T23:19:43.691Z,22.20
2018-05-08T23:22:11.928Z,22.20
2018-05-08T23:24:40.154Z,22.10
2018-05-08T23:27:08.419Z,22.00
2018-05-08T23:29:36.642Z,22.00
2018-05-08T23:32:05.326Z,21.90
2018-05-08T23:34:34.311Z,21.90
2018-05-08T23:37:03.307Z,21.80
2018-05-08T23:39:31.570Z,21.80
2018-05-08T23:41:59.794Z,21.70
2018-05-08T23:44:29.532Z,21.60
2018-05-08T23:46:58.939Z,21.60
2018-05-08T23:49:27.559Z,21.50
2018-05-08T23:51:55.788Z,21.50
2018-05-08T23:54:24.064Z,21.50
2018-05-08T23:56:52.295Z,21.50
2018-05-08T23:59:22.029Z,21.40
